createdAt,value
2022-12-15T00:03:16.305Z,81.89
2022-12-15T00:06:38.057Z,81.41
2022-12-15T00:09:58.655Z,80.73
2022-12-15T00:13:19.561Z,80.31
2022-12-15T00:16:40.446Z,79.84
2022-12-15T00:20:01.559Z,79.85
2022-12-15T00:23:29.689Z,79.86
2022-12-15T00:26:51.086Z,79.97
2022-12-15T00:30:11.989Z,80.38
2022-12-15T00:33:33.218Z,80.63
2022-12-15T00:36:54.363Z,80.39
2022-12-15T00:40:04.704Z,80.52
2022-12-15T00:43:07.002Z,80.92
2022-12-15T00:46:28.160Z,81.47
2022-12-15T00:49:50.242Z,81.12
2022-12-15T00:53:10.964Z,80.93
2022-12-15T00:56:31.909Z,80.96
2022-12-15T00:59:53.051Z,81.24
2022-12-15T01:03:13.995Z,81.80
2022-12-15T01:06:37.703Z,81.79
2022-12-15T01:09:58.251Z,81.41
2022-12-15T01:13:19.219Z,81.46
2022-12-15T01:16:40.241Z,81.61
2022-12-15T01:20:01.882Z,81.92
2022-12-15T01:23:04.152Z,82.01
2022-12-15T01:26:06.935Z,81.72
2022-12-15T01:29:09.146Z,81.44
2022-12-15T01:32:13.164Z,81.58
2022-12-15T01:35:15.835Z,81.66
2022-12-15T01:38:18.343Z,82.03
2022-12-15T01:41:20.728Z,82.25
2022-12-15T01:44:24.579Z,82.33
2022-12-15T01:47:28.088Z,82.19
2022-12-15T01:50:33.080Z,81.97
2022-12-15T01:53:39.804Z,81.95
2022-12-15T01:56:49.959Z,81.80
2022-12-15T01:59:55.924Z,81.89
2022-12-15T02:03:01.962Z,81.79
2022-12-15T02:06:05.143Z,82.05
2022-12-15T02:09:08.285Z,82.11
2022-12-15T02:12:22.992Z,82.00
2022-12-15T02:15:28.186Z,81.99
2022-12-15T02:18:37.703Z,81.84
2022-12-15T02:22:02.750Z,81.68
2022-12-15T02:25:29.701Z,81.81
2022-12-15T02:28:40.386Z,82.24
2022-12-15T02:32:00.349Z,82.17
2022-12-15T02:35:12.387Z,82.33
2022-12-15T02:38:14.943Z,82.74
2022-12-15T02:41:37.275Z,82.79
2022-12-15T02:44:53.708Z,82.65
2022-12-15T02:48:34.399Z,82.64
2022-12-15T02:52:11.303Z,82.78
2022-12-15T02:55:21.245Z,82.41
2022-12-15T02:58:36.380Z,82.79
2022-12-15T03:01:53.864Z,83.38
2022-12-15T03:04:58.336Z,83.38
2022-12-15T03:08:01.377Z,83.76
2022-12-15T03:11:04.041Z,83.73
2022-12-15T03:14:06.381Z,83.39
2022-12-15T03:17:08.980Z,83.07
2022-12-15T03:20:12.089Z,82.98
2022-12-15T03:23:14.807Z,83.27
2022-12-15T03:26:17.090Z,83.17
2022-12-15T03:29:19.894Z,83.25
2022-12-15T03:32:22.153Z,83.23
2022-12-15T03:35:24.688Z,83.51
2022-12-15T03:38:27.024Z,83.73
2022-12-15T03:41:29.520Z,83.98
2022-12-15T03:44:31.797Z,83.66
2022-12-15T03:47:34.397Z,83.86
2022-12-15T03:50:37.515Z,84.09
2022-12-15T03:53:40.851Z,84.21
2022-12-15T03:56:43.178Z,84.57
2022-12-15T03:59:45.749Z,84.03
2022-12-15T04:02:50.198Z,84.41
2022-12-15T04:05:53.150Z,84.53
2022-12-15T04:08:55.532Z,84.52
2022-12-15T04:11:58.106Z,84.52
2022-12-15T04:15:00.430Z,84.67
2022-12-15T04:18:05.365Z,84.60
2022-12-15T04:21:07.601Z,84.90
2022-12-15T04:24:29.125Z,85.20
2022-12-15T04:27:49.968Z,85.17
2022-12-15T04:31:18.148Z,85.32
2022-12-15T04:34:41.884Z,85.74
2022-12-15T04:38:03.223Z,85.72
2022-12-15T04:41:24.784Z,85.45
2022-12-15T04:44:50.161Z,85.41
2022-12-15T04:48:11.603Z,85.10
2022-12-15T04:51:32.579Z,85.10
2022-12-15T04:54:53.295Z,84.93
2022-12-15T04:58:14.677Z,84.78
2022-12-15T05:01:35.382Z,84.54
2022-12-15T05:04:56.689Z,84.29
2022-12-15T05:08:17.716Z,84.20
2022-12-15T05:11:39.080Z,84.11
2022-12-15T05:15:00.026Z,84.10
2022-12-15T05:18:21.286Z,84.16
2022-12-15T05:21:42.317Z,84.37
2022-12-15T05:25:03.205Z,84.24
2022-12-15T05:28:25.163Z,84.07
2022-12-15T05:31:46.341Z,84.00
2022-12-15T05:34:48.634Z,84.07
2022-12-15T05:37:51.158Z,84.15
2022-12-15T05:40:53.463Z,84.08
2022-12-15T05:43:55.985Z,84.15
2022-12-15T05:46:58.239Z,84.43
2022-12-15T05:50:00.798Z,84.45
2022-12-15T05:53:03.070Z,84.25
2022-12-15T05:56:08.345Z,84.24
2022-12-15T05:59:11.076Z,84.13
2022-12-15T06:02:13.672Z,84.08
2022-12-15T06:05:16.357Z,84.12
2022-12-15T06:08:18.581Z,84.20
2022-12-15T06:11:22.333Z,84.27
2022-12-15T06:14:24.544Z,84.25
2022-12-15T06:17:27.173Z,84.50
2022-12-15T06:20:29.559Z,84.47
2022-12-15T06:23:33.344Z,84.64
2022-12-15T06:26:37.997Z,84.42
2022-12-15T06:29:40.534Z,84.47
2022-12-15T06:32:42.771Z,84.24
2022-12-15T06:35:45.426Z,84.33
2022-12-15T06:38:49.985Z,84.09
2022-12-15T06:41:52.747Z,83.86
2022-12-15T06:44:54.985Z,83.85
2022-12-15T06:48:01.301Z,83.92
2022-12-15T06:51:05.838Z,83.96
2022-12-15T06:54:11.239Z,83.89
2022-12-15T06:57:13.540Z,83.73
2022-12-15T07:00:16.428Z,83.87
2022-12-15T07:03:20.417Z,83.66
2022-12-15T07:06:23.165Z,83.81
2022-12-15T07:09:26.254Z,83.64
2022-12-15T07:12:28.908Z,83.86
2022-12-15T07:15:31.886Z,83.75
2022-12-15T07:18:34.469Z,83.67
2022-12-15T07:21:36.764Z,83.85
2022-12-15T07:24:39.332Z,83.60
2022-12-15T07:27:41.622Z,83.69
2022-12-15T07:30:44.283Z,83.62
2022-12-15T07:33:48.476Z,83.30
2022-12-15T07:36:52.781Z,83.22
2022-12-15T07:39:55.212Z,83.41
2022-12-15T07:42:57.731Z,83.18
2022-12-15T07:46:00.423Z,83.07
2022-12-15T07:49:03.132Z,82.80
2022-12-15T07:52:05.498Z,82.85
2022-12-15T07:55:08.383Z,82.79
2022-12-15T07:58:10.631Z,82.58
2022-12-15T08:01:14.701Z,82.51
2022-12-15T08:04:17.524Z,82.84
2022-12-15T08:07:19.805Z,82.52
2022-12-15T08:10:22.381Z,82.54
2022-12-15T08:14:00.191Z,82.51
2022-12-15T08:16:47.566Z,82.26
2022-12-15T08:19:49.891Z,81.95
2022-12-15T08:22:52.471Z,81.83
2022-12-15T08:25:54.789Z,81.47
2022-12-15T08:29:11.894Z,81.80
2022-12-15T08:32:19.787Z,82.17
2022-12-15T08:35:54.619Z,81.73
2022-12-15T08:38:46.044Z,81.32
2022-12-15T08:41:50.038Z,80.90
2022-12-15T08:44:52.374Z,80.77
2022-12-15T08:47:56.132Z,81.18
2022-12-15T08:50:59.214Z,80.82
2022-12-15T08:54:02.315Z,80.87
2022-12-15T08:57:05.274Z,80.73
2022-12-15T09:00:08.586Z,80.66
2022-12-15T09:03:10.837Z,80.58
2022-12-15T09:06:16.328Z,80.45
2022-12-15T09:09:19.647Z,80.60
2022-12-15T09:12:22.327Z,80.68
2022-12-15T09:15:39.471Z,80.71
2022-12-15T09:18:49.610Z,80.61
2022-12-15T09:21:52.103Z,80.57
2022-12-15T09:24:54.638Z,80.35
2022-12-15T09:27:57.231Z,80.29
2022-12-15T09:31:09.115Z,80.04
2022-12-15T09:34:17.831Z,79.80
2022-12-15T09:37:20.912Z,79.37
2022-12-15T09:40:24.177Z,79.26
2022-12-15T09:43:38.919Z,79.56
2022-12-15T09:47:04.990Z,79.73
2022-12-15T09:50:12.644Z,79.97
2022-12-15T09:53:52.948Z,79.82
2022-12-15T09:57:28.772Z,80.02
2022-12-15T10:00:55.637Z,79.78
2022-12-15T10:04:04.265Z,79.52
2022-12-15T10:07:21.773Z,79.64
2022-12-15T10:10:30.704Z,79.77
2022-12-15T10:14:02.580Z,79.58
2022-12-15T10:17:23.824Z,79.86
2022-12-15T10:20:29.883Z,80.09
2022-12-15T10:23:35.999Z,79.84
2022-12-15T10:26:41.296Z,79.72
2022-12-15T10:29:51.801Z,79.59
2022-12-15T10:33:01.549Z,79.64
2022-12-15T10:36:12.471Z,79.39
2022-12-15T10:39:17.655Z,79.27
2022-12-15T10:42:25.691Z,79.04
2022-12-15T10:45:39.204Z,78.94
2022-12-15T10:48:44.216Z,79.29
2022-12-15T10:51:57.494Z,79.70
2022-12-15T10:55:00.801Z,79.57
2022-12-15T10:58:14.524Z,79.44
2022-12-15T11:01:24.973Z,79.24
2022-12-15T11:04:32.261Z,78.82
2022-12-15T11:07:41.661Z,78.65
2022-12-15T11:11:16.988Z,78.95
2022-12-15T11:14:24.330Z,78.77
2022-12-15T11:17:40.578Z,79.01
2022-12-15T11:21:07.669Z,79.48
2022-12-15T11:24:33.980Z,79.17
2022-12-15T11:27:43.408Z,79.04
2022-12-15T11:30:53.075Z,79.37
2022-12-15T11:33:57.135Z,79.92
2022-12-15T11:37:18.746Z,79.83
2022-12-15T11:40:35.795Z,79.68
2022-12-15T11:43:53.295Z,79.57
2022-12-15T11:47:10.781Z,79.67
2022-12-15T11:50:41.221Z,79.67
2022-12-15T11:53:58.910Z,79.76
2022-12-15T11:57:32.676Z,79.71
2022-12-15T12:00:42.754Z,79.80
2022-12-15T12:04:14.633Z,80.17
2022-12-15T12:07:51.912Z,80.58
2022-12-15T12:11:16.810Z,80.83
2022-12-15T12:14:39.885Z,80.62
2022-12-15T12:17:48.018Z,80.25
2022-12-15T12:20:56.593Z,80.16
2022-12-15T12:24:01.566Z,80.15
2022-12-15T12:27:17.968Z,80.56
2022-12-15T12:30:24.163Z,81.02
2022-12-15T12:33:39.877Z,81.00
2022-12-15T12:36:44.946Z,81.17
2022-12-15T12:39:54.134Z,81.61
2022-12-15T12:42:58.498Z,81.65
2022-12-15T12:46:16.168Z,82.10
2022-12-15T12:49:33.444Z,82.01
2022-12-15T12:52:38.047Z,82.54
2022-12-15T12:55:43.712Z,82.67
2022-12-15T12:58:48.461Z,82.89
2022-12-15T13:01:51.363Z,83.30
2022-12-15T13:05:27.287Z,83.44
2022-12-15T13:08:50.962Z,83.45
2022-12-15T13:12:14.989Z,83.76
2022-12-15T13:15:41.697Z,84.16
2022-12-15T13:19:06.758Z,84.85
2022-12-15T13:22:31.604Z,85.11
2022-12-15T13:25:42.491Z,85.25
2022-12-15T13:28:48.835Z,84.79
2022-12-15T13:31:54.004Z,85.04
2022-12-15T13:34:57.651Z,84.71
2022-12-15T13:38:07.491Z,84.75
2022-12-15T13:41:24.385Z,84.85
2022-12-15T13:44:35.364Z,84.89
2022-12-15T13:47:38.549Z,85.60
2022-12-15T13:50:51.367Z,86.14
2022-12-15T13:54:11.877Z,86.47
2022-12-15T13:57:17.383Z,86.66
2022-12-15T14:00:20.389Z,87.15
2022-12-15T14:03:24.062Z,87.02
2022-12-15T14:06:35.205Z,87.48
2022-12-15T14:09:41.997Z,88.04
2022-12-15T14:12:45.875Z,88.14
2022-12-15T14:15:58.315Z,88.55
2022-12-15T14:19:04.213Z,89.28
2022-12-15T14:22:27.055Z,89.13
2022-12-15T14:25:30.763Z,89.08
2022-12-15T14:28:35.953Z,89.42
2022-12-15T14:31:38.572Z,89.27
2022-12-15T14:34:43.977Z,89.58
2022-12-15T14:37:55.990Z,89.92
2022-12-15T14:41:02.064Z,90.01
2022-12-15T14:44:38.356Z,90.06
2022-12-15T14:48:05.742Z,90.12
2022-12-15T14:51:13.807Z,90.26
2022-12-15T14:54:35.599Z,90.46
2022-12-15T14:57:46.569Z,90.60
2022-12-15T15:00:52.522Z,90.48
2022-12-15T15:04:04.666Z,90.33
2022-12-15T15:07:18.326Z,90.21
2022-12-15T15:10:24.336Z,90.46
2022-12-15T15:13:40.020Z,90.74
2022-12-15T15:16:43.708Z,90.57
2022-12-15T15:19:59.019Z,90.78
2022-12-15T15:23:07.289Z,90.61
2022-12-15T15:26:10.603Z,90.47
2022-12-15T15:29:38.060Z,90.86
2022-12-15T15:32:58.075Z,91.19
2022-12-15T15:36:02.655Z,91.15
2022-12-15T15:39:15.769Z,91.28
2022-12-15T15:42:18.578Z,91.67
2022-12-15T15:45:23.419Z,91.93
2022-12-15T15:48:31.083Z,92.03
2022-12-15T15:51:35.217Z,92.07
2022-12-15T15:54:37.553Z,92.12
2022-12-15T15:57:40.102Z,92.49
2022-12-15T16:00:42.418Z,92.17
2022-12-15T16:03:45.140Z,92.05
2022-12-15T16:06:48.040Z,92.12
2022-12-15T16:09:51.651Z,92.26
2022-12-15T16:13:00.809Z,92.32
2022-12-15T16:16:04.394Z,92.10
2022-12-15T16:19:07.004Z,92.11
2022-12-15T16:22:18.484Z,92.53
2022-12-15T16:25:33.112Z,92.09
2022-12-15T16:28:42.223Z,92.26
2022-12-15T16:31:45.808Z,92.11
2022-12-15T16:34:49.758Z,91.94
2022-12-15T16:37:52.346Z,91.81
2022-12-15T16:40:56.650Z,92.11
2022-12-15T16:43:58.902Z,92.09
2022-12-15T16:47:01.561Z,92.31
2022-12-15T16:50:04.178Z,91.98
2022-12-15T16:53:15.353Z,92.29
2022-12-15T16:56:17.644Z,92.17
2022-12-15T16:59:33.028Z,92.07
2022-12-15T17:02:37.435Z,92.07
2022-12-15T17:05:42.039Z,91.89
2022-12-15T17:08:51.688Z,91.83
2022-12-15T17:11:58.491Z,91.76
2022-12-15T17:15:02.486Z,91.61
2022-12-15T17:18:05.140Z,91.71
2022-12-15T17:21:15.959Z,92.12
2022-12-15T17:24:20.476Z,92.25
2022-12-15T17:27:28.253Z,92.30
2022-12-15T17:30:30.865Z,92.53
2022-12-15T17:33:35.733Z,92.32
2022-12-15T17:36:38.583Z,92.26
2022-12-15T17:39:41.902Z,92.10
2022-12-15T17:42:46.118Z,92.25
2022-12-15T17:45:50.860Z,92.37
2022-12-15T17:48:53.469Z,92.47
2022-12-15T17:51:56.203Z,92.24
2022-12-15T17:54:58.796Z,92.50
2022-12-15T17:58:01.113Z,92.42
2022-12-15T18:01:04.176Z,92.40
2022-12-15T18:04:06.877Z,92.40
2022-12-15T18:07:27.392Z,91.63
2022-12-15T18:10:33.761Z,91.90
2022-12-15T18:13:36.048Z,92.12
2022-12-15T18:16:38.791Z,92.08
2022-12-15T18:19:41.066Z,91.96
2022-12-15T18:22:43.971Z,92.29
2022-12-15T18:25:46.348Z,92.14
2022-12-15T18:28:49.682Z,92.17
2022-12-15T18:31:52.364Z,92.22
2022-12-15T18:34:56.224Z,92.47
2022-12-15T18:37:58.635Z,92.32
2022-12-15T18:41:01.612Z,92.67
2022-12-15T18:44:04.026Z,92.19
2022-12-15T18:47:16.788Z,92.13
2022-12-15T18:50:24.957Z,92.54
2022-12-15T18:53:34.324Z,92.62
2022-12-15T18:56:37.157Z,92.26
2022-12-15T18:59:39.811Z,92.41
2022-12-15T19:02:42.715Z,92.52
2022-12-15T19:05:46.051Z,92.55
2022-12-15T19:08:50.065Z,92.80
2022-12-15T19:12:15.435Z,92.93
2022-12-15T19:15:19.345Z,92.65
2022-12-15T19:18:42.162Z,92.82
2022-12-15T19:21:44.547Z,92.33
2022-12-15T19:24:55.755Z,92.48
2022-12-15T19:28:00.072Z,92.40
2022-12-15T19:31:02.823Z,92.40
2022-12-15T19:34:05.181Z,92.42
2022-12-15T19:37:19.814Z,91.68
2022-12-15T19:40:33.196Z,91.79
2022-12-15T19:43:36.245Z,91.67
2022-12-15T19:46:40.862Z,92.06
2022-12-15T19:49:43.567Z,91.71
2022-12-15T19:52:49.115Z,91.56
2022-12-15T19:55:54.421Z,91.42
2022-12-15T19:58:57.007Z,91.26
2022-12-15T20:01:59.679Z,91.55
2022-12-15T20:05:02.447Z,91.81
2022-12-15T20:08:05.128Z,92.54
2022-12-15T20:11:25.794Z,92.79
2022-12-15T20:14:28.127Z,92.92
2022-12-15T20:17:30.628Z,92.96
2022-12-15T20:20:33.389Z,92.53
2022-12-15T20:23:40.640Z,92.53
2022-12-15T20:26:43.922Z,92.65
2022-12-15T20:29:46.532Z,92.34
2022-12-15T20:32:49.409Z,92.36
2022-12-15T20:35:52.445Z,91.78
2022-12-15T20:38:55.772Z,92.05
2022-12-15T20:41:58.369Z,91.58
2022-12-15T20:45:00.635Z,91.72
2022-12-15T20:48:03.225Z,91.85
2022-12-15T20:51:09.824Z,91.41
2022-12-15T20:54:21.292Z,91.28
2022-12-15T20:57:23.586Z,90.61
2022-12-15T21:00:26.374Z,90.51
2022-12-15T21:03:32.961Z,90.67
2022-12-15T21:06:36.904Z,91.00
2022-12-15T21:09:39.638Z,91.13
2022-12-15T21:12:44.194Z,90.70
2022-12-15T21:15:46.840Z,90.50
2022-12-15T21:22:25.824Z,91.37
2022-12-15T21:25:29.956Z,91.67
2022-12-15T21:28:32.636Z,91.83
2022-12-15T21:31:35.448Z,91.91
2022-12-15T21:34:37.950Z,92.00
2022-12-15T21:37:41.896Z,91.88
2022-12-15T21:40:44.443Z,91.58
2022-12-15T21:43:47.025Z,91.59
2022-12-15T21:46:49.333Z,91.68
2022-12-15T21:49:55.014Z,91.75
2022-12-15T21:52:57.527Z,91.87
2022-12-15T21:56:01.524Z,91.89
2022-12-15T21:59:11.642Z,91.96
2022-12-15T22:02:26.209Z,92.04
2022-12-15T22:05:32.556Z,92.02
2022-12-15T22:08:35.427Z,91.90
2022-12-15T22:11:40.219Z,92.08
2022-12-15T22:14:42.566Z,92.01
2022-12-15T22:17:45.498Z,91.92
2022-12-15T22:20:49.918Z,91.84
2022-12-15T22:23:52.713Z,91.78
2022-12-15T22:26:55.020Z,91.79
2022-12-15T22:29:57.623Z,91.70
2022-12-15T22:33:00.552Z,91.81
2022-12-15T22:36:03.104Z,91.99
2022-12-15T22:39:10.741Z,91.95
2022-12-15T22:42:17.506Z,92.14
2022-12-15T22:45:21.402Z,92.24
2022-12-15T22:48:29.878Z,92.53
2022-12-15T22:51:32.359Z,92.61
2022-12-15T22:54:34.871Z,92.88
2022-12-15T22:57:38.441Z,92.76
2022-12-15T23:00:41.627Z,92.77
2022-12-15T23:03:43.947Z,93.15
2022-12-15T23:06:46.591Z,93.09
2022-12-15T23:09:48.838Z,93.01
2022-12-15T23:12:54.462Z,93.15
2022-12-15T23:16:15.469Z,93.28
2022-12-15T23:19:23.996Z,93.32
2022-12-15T23:22:26.457Z,93.43
2022-12-15T23:25:29.394Z,93.36
2022-12-15T23:28:32.727Z,93.49
2022-12-15T23:31:35.494Z,93.40
2022-12-15T23:34:37.841Z,93.46
2022-12-15T23:37:40.738Z,93.55
2022-12-15T23:40:53.088Z,93.56
2022-12-15T23:43:56.007Z,93.58
2022-12-15T23:46:58.373Z,93.73
2022-12-15T23:50:01.123Z,93.81
2022-12-15T23:53:04.352Z,93.77
2022-12-15T23:56:15.657Z,93.87
2022-12-15T23:59:17.882Z,94.07
